createdAt,value
2022-10-06T00:00:51.056Z,0.80
2022-10-06T00:03:26.564Z,1.10
2022-10-06T00:05:59.531Z,1.20
2022-10-06T00:08:27.491Z,1.40
2022-10-06T00:10:55.866Z,1.30
2022-10-06T00:13:24.115Z,0.90
2022-10-06T00:15:51.723Z,1.17
2022-10-06T00:18:19.310Z,1.23
2022-10-06T00:20:46.763Z,1.10
2022-10-06T00:23:14.207Z,1.33
2022-10-06T00:25:43.063Z,1.00
2022-10-06T00:28:10.760Z,1.10
2022-10-06T00:30:38.267Z,1.20
2022-10-06T00:33:05.904Z,1.13
2022-10-06T00:35:34.534Z,1.10
2022-10-06T00:38:02.317Z,1.30
2022-10-06T00:40:30.184Z,1.40
2022-10-06T00:42:57.642Z,1.60
2022-10-06T00:45:44.514Z,1.20
2022-10-06T00:48:19.451Z,1.33
2022-10-06T00:50:47.309Z,1.33
2022-10-06T00:53:15.435Z,1.77
2022-10-06T00:55:42.899Z,1.43
2022-10-06T00:58:10.722Z,1.63
2022-10-06T01:00:38.503Z,1.60
2022-10-06T01:03:06.006Z,1.67
2022-10-06T01:05:41.222Z,1.90
2022-10-06T01:08:09.208Z,1.87
2022-10-06T01:10:36.711Z,1.83
2022-10-06T01:13:04.327Z,1.63
2022-10-06T01:15:31.900Z,1.60
2022-10-06T01:18:05.042Z,1.83
2022-10-06T01:20:32.782Z,1.70
2022-10-06T01:23:02.567Z,1.90
2022-10-06T01:25:30.183Z,1.57
2022-10-06T01:27:58.055Z,1.50
2022-10-06T01:30:27.667Z,1.90
2022-10-06T01:32:55.558Z,1.80
2022-10-06T01:35:23.070Z,2.10
2022-10-06T01:37:50.547Z,2.17
2022-10-06T01:40:18.051Z,1.60
2022-10-06T01:42:45.646Z,1.87
2022-10-06T01:45:13.067Z,1.60
2022-10-06T01:47:40.557Z,2.07
2022-10-06T01:50:08.271Z,1.60
2022-10-06T01:52:36.202Z,1.43
2022-10-06T01:55:04.505Z,1.60
2022-10-06T01:57:38.506Z,1.90
2022-10-06T02:00:06.185Z,1.67
2022-10-06T02:02:33.615Z,1.77
2022-10-06T02:05:01.279Z,2.23
2022-10-06T02:07:28.753Z,1.70
2022-10-06T02:09:56.366Z,1.93
2022-10-06T02:12:23.871Z,1.50
2022-10-06T02:14:51.326Z,1.73
2022-10-06T02:17:18.744Z,1.90
2022-10-06T02:19:46.340Z,1.87
2022-10-06T02:22:13.815Z,1.77
2022-10-06T02:24:41.436Z,1.80
2022-10-06T02:27:09.132Z,2.07
2022-10-06T02:29:36.776Z,1.80
2022-10-06T02:32:04.210Z,2.77
2022-10-06T02:34:31.695Z,1.60
2022-10-06T02:36:59.305Z,1.80
2022-10-06T02:39:26.975Z,1.87
2022-10-06T02:41:54.465Z,1.93
2022-10-06T02:44:21.909Z,2.40
2022-10-06T02:46:49.485Z,2.93
2022-10-06T02:49:17.063Z,1.70
2022-10-06T02:51:44.530Z,1.77
2022-10-06T02:54:12.061Z,1.80
2022-10-06T02:56:39.528Z,2.47
2022-10-06T02:59:07.018Z,2.40
2022-10-06T03:01:34.629Z,2.10
2022-10-06T03:04:02.354Z,1.90
2022-10-06T03:06:31.047Z,1.70
2022-10-06T03:08:59.803Z,1.93
2022-10-06T03:11:28.416Z,2.30
2022-10-06T03:13:56.233Z,2.20
2022-10-06T03:16:23.786Z,1.70
2022-10-06T03:18:52.262Z,2.17
2022-10-06T03:21:20.582Z,2.30
2022-10-06T03:23:48.886Z,1.30
2022-10-06T03:26:17.246Z,1.87
2022-10-06T03:28:45.089Z,2.07
2022-10-06T03:31:13.184Z,2.23
2022-10-06T03:33:40.663Z,1.97
2022-10-06T03:36:10.697Z,2.40
2022-10-06T03:38:38.616Z,2.10
2022-10-06T03:41:25.618Z,2.10
2022-10-06T03:43:54.555Z,1.80
2022-10-06T03:46:26.884Z,2.13
2022-10-06T03:48:54.859Z,2.07
2022-10-06T03:51:23.669Z,1.93
2022-10-06T03:53:51.974Z,2.40
2022-10-06T03:56:19.431Z,2.67
2022-10-06T03:58:49.359Z,2.17
2022-10-06T04:01:23.512Z,2.13
2022-10-06T04:03:54.615Z,2.57
2022-10-06T04:06:22.398Z,2.20
2022-10-06T04:08:50.934Z,2.57
2022-10-06T04:11:19.952Z,1.53
2022-10-06T04:13:48.064Z,2.13
2022-10-06T04:16:17.889Z,2.50
2022-10-06T04:18:46.523Z,2.57
2022-10-06T04:21:14.262Z,2.30
2022-10-06T04:23:41.990Z,2.53
2022-10-06T04:26:12.762Z,2.40
2022-10-06T04:28:41.200Z,2.33
2022-10-06T04:31:13.592Z,1.80
2022-10-06T04:33:41.204Z,2.20
2022-10-06T04:36:09.006Z,2.10
2022-10-06T04:38:36.958Z,2.27
2022-10-06T04:41:17.753Z,2.63
2022-10-06T04:43:46.271Z,2.07
2022-10-06T04:46:41.010Z,2.30
2022-10-06T04:49:01.649Z,2.20
2022-10-06T04:51:29.322Z,2.90
2022-10-06T04:53:56.765Z,2.43
2022-10-06T04:56:28.341Z,2.40
2022-10-06T04:58:56.925Z,2.47
2022-10-06T05:01:25.632Z,2.23
2022-10-06T05:03:54.075Z,2.70
2022-10-06T05:06:22.855Z,2.50
2022-10-06T05:08:51.440Z,2.20
2022-10-06T05:11:22.447Z,3.00
2022-10-06T05:13:53.512Z,2.30
2022-10-06T05:16:21.455Z,2.77
2022-10-06T05:18:49.254Z,2.50
2022-10-06T05:21:21.621Z,2.90
2022-10-06T05:23:49.294Z,2.73
2022-10-06T05:26:18.261Z,2.27
2022-10-06T05:28:45.826Z,2.20
2022-10-06T05:31:19.742Z,2.50
2022-10-06T05:33:47.487Z,3.53
2022-10-06T05:36:16.461Z,2.50
2022-10-06T05:38:44.062Z,3.27
2022-10-06T05:41:12.513Z,2.70
2022-10-06T05:43:40.295Z,2.93
2022-10-06T05:46:09.290Z,2.67
2022-10-06T05:48:36.855Z,2.37
2022-10-06T05:51:08.515Z,2.83
2022-10-06T05:53:36.798Z,3.17
2022-10-06T05:56:04.235Z,3.43
2022-10-06T05:58:32.475Z,2.30
2022-10-06T06:01:06.937Z,2.57
2022-10-06T06:03:34.435Z,2.13
2022-10-06T06:06:02.063Z,3.50
2022-10-06T06:08:29.764Z,2.93
2022-10-06T06:11:05.648Z,3.20
2022-10-06T06:13:33.228Z,2.97
2022-10-06T06:16:01.394Z,2.40
2022-10-06T06:18:29.275Z,3.30
2022-10-06T06:20:57.975Z,2.60
2022-10-06T06:23:25.580Z,2.63
2022-10-06T06:26:02.470Z,3.17
2022-10-06T06:28:31.386Z,2.30
2022-10-06T06:31:20.281Z,3.40
2022-10-06T06:33:48.660Z,2.40
2022-10-06T06:36:16.155Z,2.43
2022-10-06T06:38:47.683Z,3.00
2022-10-06T06:41:28.897Z,2.70
2022-10-06T06:43:56.822Z,2.93
2022-10-06T06:46:25.691Z,2.80
2022-10-06T06:48:54.044Z,2.87
2022-10-06T06:51:22.121Z,2.80
2022-10-06T06:53:52.406Z,3.30
2022-10-06T06:56:20.552Z,3.30
2022-10-06T06:58:48.207Z,2.83
2022-10-06T07:01:16.837Z,2.80
2022-10-06T07:03:57.095Z,2.87
2022-10-06T07:06:28.180Z,2.67
2022-10-06T07:08:57.218Z,3.10
2022-10-06T07:11:24.707Z,3.40
2022-10-06T07:13:53.307Z,2.50
2022-10-06T07:16:21.654Z,2.60
2022-10-06T07:18:49.116Z,3.03
2022-10-06T07:21:16.571Z,3.03
2022-10-06T07:23:44.174Z,2.97
2022-10-06T07:26:11.648Z,2.47
2022-10-06T07:28:39.248Z,2.87
2022-10-06T07:31:06.937Z,2.40
2022-10-06T07:33:34.507Z,3.07
2022-10-06T07:36:03.155Z,2.90
2022-10-06T07:38:30.843Z,2.30
2022-10-06T07:43:46.459Z,2.90
2022-10-06T07:46:14.279Z,3.27
2022-10-06T07:48:42.094Z,3.00
2022-10-06T07:51:13.797Z,3.07
2022-10-06T07:53:41.512Z,2.60
2022-10-06T07:56:15.195Z,2.73
2022-10-06T07:58:42.661Z,3.00
2022-10-06T08:01:11.574Z,3.47
2022-10-06T08:03:39.557Z,3.10
2022-10-06T08:06:07.646Z,2.87
2022-10-06T08:08:35.354Z,2.77
2022-10-06T08:11:03.277Z,2.67
2022-10-06T08:13:31.156Z,2.77
2022-10-06T08:16:04.554Z,3.57
2022-10-06T08:18:46.052Z,2.57
2022-10-06T08:21:34.540Z,2.93
2022-10-06T08:24:02.045Z,3.13
2022-10-06T08:26:29.976Z,2.73
2022-10-06T08:28:57.789Z,2.93
2022-10-06T08:31:28.197Z,3.37
2022-10-06T08:33:56.442Z,2.90
2022-10-06T08:36:30.588Z,2.30
2022-10-06T08:38:59.183Z,3.57
2022-10-06T08:41:26.662Z,2.97
2022-10-06T08:44:17.484Z,2.80
2022-10-06T08:46:48.449Z,3.20
2022-10-06T08:49:18.244Z,3.00
2022-10-06T08:51:51.622Z,3.47
2022-10-06T08:54:22.192Z,3.10
2022-10-06T08:56:49.603Z,2.83
2022-10-06T08:59:19.248Z,2.73
2022-10-06T09:01:48.344Z,2.83
2022-10-06T09:04:20.883Z,2.43
2022-10-06T09:06:54.922Z,2.87
2022-10-06T09:09:41.129Z,2.67
2022-10-06T09:12:08.631Z,2.60
2022-10-06T09:14:40.333Z,2.80
2022-10-06T09:17:11.047Z,3.03
2022-10-06T09:19:42.057Z,2.80
2022-10-06T09:22:17.874Z,2.37
2022-10-06T09:24:47.583Z,2.77
2022-10-06T09:27:22.693Z,2.73
2022-10-06T09:29:51.204Z,3.30
2022-10-06T09:32:19.978Z,2.73
2022-10-06T09:34:50.074Z,3.20
2022-10-06T09:37:17.539Z,2.97
2022-10-06T09:39:46.697Z,3.20
2022-10-06T09:42:16.430Z,3.13
2022-10-06T09:45:03.069Z,3.13
2022-10-06T09:47:40.444Z,3.87
2022-10-06T09:50:13.954Z,2.93
2022-10-06T09:52:42.400Z,2.63
2022-10-06T09:55:14.440Z,2.40
2022-10-06T09:57:49.525Z,2.40
2022-10-06T10:00:30.242Z,2.53
2022-10-06T10:02:59.313Z,2.17
2022-10-06T10:05:27.384Z,2.77
2022-10-06T10:08:04.099Z,2.50
2022-10-06T10:10:31.584Z,2.47
2022-10-06T10:13:00.040Z,1.90
2022-10-06T10:15:29.002Z,2.20
2022-10-06T10:17:57.624Z,1.83
2022-10-06T10:20:25.159Z,2.10
2022-10-06T10:22:53.692Z,2.10
2022-10-06T10:25:33.561Z,2.60
2022-10-06T10:28:07.504Z,2.77
2022-10-06T10:30:40.546Z,2.70
2022-10-06T10:33:16.301Z,2.50
2022-10-06T10:35:47.870Z,2.20
2022-10-06T10:38:26.079Z,2.60
2022-10-06T10:41:02.071Z,1.93
2022-10-06T10:43:34.889Z,1.83
2022-10-06T10:46:05.380Z,1.97
2022-10-06T10:48:51.894Z,2.30
2022-10-06T10:51:25.434Z,1.87
2022-10-06T10:53:55.335Z,2.27
2022-10-06T10:56:24.490Z,2.00
2022-10-06T10:58:57.251Z,1.73
2022-10-06T11:01:46.208Z,1.47
2022-10-06T11:04:14.323Z,1.70
2022-10-06T11:06:44.553Z,1.90
2022-10-06T11:09:16.071Z,1.60
2022-10-06T11:11:51.382Z,2.33
2022-10-06T11:14:25.753Z,1.47
2022-10-06T11:16:53.502Z,1.77
2022-10-06T11:19:40.933Z,2.00
2022-10-06T11:22:08.499Z,2.07
2022-10-06T11:24:41.957Z,1.80
2022-10-06T11:27:09.530Z,1.50
2022-10-06T11:29:47.220Z,1.50
2022-10-06T11:32:31.569Z,1.73
2022-10-06T11:34:59.183Z,1.50
2022-10-06T11:37:47.129Z,1.73
2022-10-06T11:40:25.058Z,1.60
2022-10-06T11:43:02.095Z,1.60
2022-10-06T11:45:39.050Z,2.03
2022-10-06T11:48:24.049Z,1.47
2022-10-06T11:50:51.586Z,1.80
2022-10-06T11:53:28.207Z,1.83
2022-10-06T11:56:15.963Z,1.20
2022-10-06T11:59:09.861Z,1.87
2022-10-06T12:01:37.378Z,1.53
2022-10-06T12:04:10.879Z,1.43
2022-10-06T12:06:44.273Z,1.80
2022-10-06T12:09:27.886Z,1.03
2022-10-06T12:11:56.609Z,1.50
2022-10-06T12:17:34.260Z,1.77
2022-10-06T12:20:02.077Z,1.70
2022-10-06T12:22:32.854Z,2.27
2022-10-06T12:25:00.793Z,1.60
2022-10-06T12:27:43.971Z,1.53
2022-10-06T12:30:14.576Z,1.83
2022-10-06T12:32:58.388Z,1.67
2022-10-06T12:35:25.881Z,1.90
2022-10-06T12:37:54.864Z,1.70
2022-10-06T12:40:42.074Z,1.63
2022-10-06T12:43:15.716Z,1.57
2022-10-06T12:46:02.050Z,1.43
2022-10-06T12:49:05.164Z,1.63
2022-10-06T12:51:43.016Z,2.07
2022-10-06T12:54:15.202Z,1.37
2022-10-06T12:56:43.682Z,1.60
2022-10-06T12:59:18.011Z,1.60
2022-10-06T13:01:45.567Z,1.60
2022-10-06T13:04:31.981Z,1.60
2022-10-06T13:06:59.544Z,1.50
2022-10-06T13:09:27.056Z,1.80
2022-10-06T13:11:54.506Z,1.50
2022-10-06T13:14:22.041Z,1.40
2022-10-06T13:16:49.660Z,1.70
2022-10-06T13:19:24.934Z,1.60
2022-10-06T13:21:52.412Z,2.27
2022-10-06T13:24:24.504Z,1.30
2022-10-06T13:26:51.982Z,1.77
2022-10-06T13:29:21.076Z,1.07
2022-10-06T13:31:53.207Z,1.50
2022-10-06T13:34:29.384Z,2.20
2022-10-06T13:36:58.576Z,1.97
2022-10-06T13:39:27.489Z,1.53
2022-10-06T13:42:05.609Z,1.63
2022-10-06T13:44:40.633Z,1.90
2022-10-06T13:47:08.113Z,1.80
2022-10-06T13:49:42.640Z,1.20
2022-10-06T13:52:17.990Z,1.77
2022-10-06T13:54:56.359Z,1.30
2022-10-06T13:57:43.948Z,1.83
2022-10-06T14:00:22.134Z,1.17
2022-10-06T14:03:09.931Z,1.30
2022-10-06T14:05:38.579Z,1.10
2022-10-06T14:08:11.956Z,1.23
2022-10-06T14:10:42.535Z,1.40
2022-10-06T14:13:16.404Z,1.57
2022-10-06T14:15:51.459Z,1.70
2022-10-06T14:18:45.129Z,1.33
2022-10-06T14:21:31.574Z,1.50
2022-10-06T14:23:59.762Z,1.27
2022-10-06T14:26:32.090Z,1.80
2022-10-06T14:29:00.625Z,1.60
2022-10-06T14:31:29.068Z,1.67
2022-10-06T14:33:56.991Z,1.30
2022-10-06T14:36:25.926Z,1.27
2022-10-06T14:38:55.854Z,1.23
2022-10-06T14:41:27.341Z,1.73
2022-10-06T14:43:58.795Z,1.30
2022-10-06T14:46:26.277Z,1.20
2022-10-06T14:48:54.007Z,1.43
2022-10-06T14:51:22.199Z,1.20
2022-10-06T14:53:53.163Z,1.57
2022-10-06T14:56:21.484Z,1.17
2022-10-06T14:58:49.212Z,1.50
2022-10-06T15:01:17.278Z,1.40
2022-10-06T15:03:50.844Z,1.50
2022-10-06T15:06:18.422Z,1.20
2022-10-06T15:08:49.340Z,1.33
2022-10-06T15:11:16.959Z,1.60
2022-10-06T15:13:44.532Z,1.50
2022-10-06T15:16:12.292Z,1.20
2022-10-06T15:18:42.713Z,1.80
2022-10-06T15:21:11.221Z,1.50
2022-10-06T15:23:39.076Z,1.63
2022-10-06T15:26:06.891Z,1.47
2022-10-06T15:28:34.408Z,1.40
2022-10-06T15:31:01.965Z,1.50
2022-10-06T15:33:29.464Z,1.30
2022-10-06T15:36:26.195Z,2.00
2022-10-06T15:38:53.982Z,1.67
2022-10-06T15:41:22.143Z,1.30
2022-10-06T15:43:49.743Z,1.80
2022-10-06T15:46:17.474Z,1.70
2022-10-06T15:48:45.135Z,1.23
2022-10-06T15:51:12.591Z,1.43
2022-10-06T15:53:40.054Z,1.20
2022-10-06T15:56:07.679Z,1.77
2022-10-06T15:58:35.195Z,1.43
2022-10-06T16:01:02.691Z,1.43
2022-10-06T16:03:30.292Z,1.23
2022-10-06T16:05:57.783Z,1.87
2022-10-06T16:08:25.415Z,1.20
2022-10-06T16:10:52.892Z,1.37
2022-10-06T16:13:20.411Z,1.20
2022-10-06T16:15:57.589Z,1.23
2022-10-06T16:18:25.279Z,1.30
2022-10-06T16:20:56.448Z,1.43
2022-10-06T16:23:23.915Z,1.43
2022-10-06T16:25:51.477Z,1.13
2022-10-06T16:28:19.406Z,1.17
2022-10-06T16:30:56.478Z,1.57
2022-10-06T16:33:23.990Z,1.53
2022-10-06T16:35:55.022Z,0.93
2022-10-06T16:38:22.920Z,1.90
2022-10-06T16:40:54.197Z,1.30
2022-10-06T16:43:21.657Z,1.40
2022-10-06T16:46:02.119Z,1.70
2022-10-06T16:48:30.760Z,1.73
2022-10-06T16:51:03.997Z,1.50
2022-10-06T16:53:37.356Z,1.90
2022-10-06T16:56:05.819Z,1.93
2022-10-06T16:58:40.206Z,1.70
2022-10-06T17:01:08.083Z,1.80
2022-10-06T17:03:35.822Z,1.50
2022-10-06T17:06:04.127Z,2.10
2022-10-06T17:08:31.579Z,1.10
2022-10-06T17:11:03.240Z,1.33
2022-10-06T17:13:30.888Z,1.80
2022-10-06T17:15:59.202Z,1.60
2022-10-06T17:18:26.860Z,2.20
2022-10-06T17:20:58.181Z,1.50
2022-10-06T17:23:26.333Z,1.67
2022-10-06T17:26:07.608Z,2.30
2022-10-06T17:28:35.352Z,1.80
2022-10-06T17:31:02.885Z,1.70
2022-10-06T17:33:31.402Z,1.90
2022-10-06T17:36:03.468Z,1.90
2022-10-06T17:38:35.103Z,1.30
2022-10-06T17:41:03.056Z,1.80
2022-10-06T17:43:30.526Z,1.73
2022-10-06T17:45:58.205Z,1.57
2022-10-06T17:48:27.143Z,2.00
2022-10-06T17:50:58.867Z,1.73
2022-10-06T17:53:27.206Z,1.80
2022-10-06T17:55:56.634Z,1.67
2022-10-06T17:58:24.268Z,2.07
2022-10-06T18:00:53.206Z,1.93
2022-10-06T18:03:23.963Z,2.03
2022-10-06T18:05:54.767Z,2.10
2022-10-06T18:08:22.345Z,2.20
2022-10-06T18:10:49.950Z,1.80
2022-10-06T18:13:17.415Z,1.83
2022-10-06T18:15:44.971Z,2.47
2022-10-06T18:18:12.464Z,2.30
2022-10-06T18:20:40.023Z,2.00
2022-10-06T18:23:07.845Z,2.10
2022-10-06T18:25:37.714Z,1.80
2022-10-06T18:28:05.269Z,2.33
2022-10-06T18:30:33.730Z,1.70
2022-10-06T18:36:12.146Z,3.47
2022-10-06T18:38:41.953Z,2.40
2022-10-06T18:41:11.602Z,2.50
2022-10-06T18:43:39.246Z,2.40
2022-10-06T18:46:07.378Z,2.43
2022-10-06T18:48:35.066Z,2.60
2022-10-06T18:51:02.858Z,2.70
2022-10-06T18:53:30.322Z,2.20
2022-10-06T18:55:57.800Z,2.30
2022-10-06T18:58:25.321Z,2.10
2022-10-06T19:00:52.895Z,2.37
2022-10-06T19:03:20.408Z,2.57
2022-10-06T19:05:53.960Z,2.63
2022-10-06T19:08:21.459Z,2.47
2022-10-06T19:10:48.979Z,2.37
2022-10-06T19:13:16.470Z,2.73
2022-10-06T19:15:50.523Z,2.67
2022-10-06T19:18:18.130Z,2.87
2022-10-06T19:20:51.153Z,2.30
2022-10-06T19:23:18.651Z,2.13
2022-10-06T19:25:46.160Z,2.63
2022-10-06T19:28:13.633Z,2.50
2022-10-06T19:30:41.213Z,2.47
2022-10-06T19:33:08.797Z,2.57
2022-10-06T19:35:36.234Z,1.77
2022-10-06T19:38:03.756Z,2.93
2022-10-06T19:40:31.359Z,2.93
2022-10-06T19:42:58.798Z,2.13
2022-10-06T19:45:26.247Z,2.57
2022-10-06T19:47:53.780Z,2.30
2022-10-06T19:50:21.358Z,2.40
2022-10-06T19:52:48.801Z,2.90
2022-10-06T19:55:16.460Z,2.73
2022-10-06T19:57:45.182Z,2.57
2022-10-06T20:00:14.279Z,2.97
2022-10-06T20:02:43.159Z,2.80
2022-10-06T20:05:15.475Z,2.77
2022-10-06T20:07:47.301Z,3.23
2022-10-06T20:10:15.485Z,2.97
2022-10-06T20:12:43.090Z,2.40
2022-10-06T20:15:11.147Z,2.83
2022-10-06T20:17:38.733Z,3.20
2022-10-06T20:20:06.619Z,2.70
2022-10-06T20:22:34.063Z,2.67
2022-10-06T20:25:01.529Z,3.40
2022-10-06T20:27:29.070Z,3.27
2022-10-06T20:29:57.070Z,3.23
2022-10-06T20:32:24.631Z,2.83
2022-10-06T20:34:52.181Z,2.70
2022-10-06T20:37:19.751Z,2.70
2022-10-06T20:39:47.329Z,3.23
2022-10-06T20:42:15.648Z,2.67
2022-10-06T20:44:43.991Z,3.60
2022-10-06T20:47:12.277Z,3.00
2022-10-06T20:49:39.995Z,2.97
2022-10-06T20:52:07.559Z,3.23
2022-10-06T20:54:35.283Z,3.27
2022-10-06T20:57:04.686Z,3.57
2022-10-06T20:59:32.525Z,2.83
2022-10-06T21:02:00.342Z,3.57
2022-10-06T21:04:28.225Z,3.90
2022-10-06T21:07:04.771Z,3.47
2022-10-06T21:09:32.269Z,3.13
2022-10-06T21:11:59.721Z,3.47
2022-10-06T21:14:27.168Z,3.87
2022-10-06T21:16:54.602Z,3.33
2022-10-06T21:19:22.057Z,3.63
2022-10-06T21:21:49.900Z,3.40
2022-10-06T21:24:17.519Z,3.33
2022-10-06T21:26:44.953Z,3.40
2022-10-06T21:29:12.786Z,3.00
2022-10-06T21:31:40.319Z,3.03
2022-10-06T21:34:07.822Z,3.10
2022-10-06T21:36:35.266Z,3.17
2022-10-06T21:39:02.985Z,3.47
2022-10-06T21:41:32.021Z,2.87
2022-10-06T21:44:00.790Z,3.10
2022-10-06T21:46:48.544Z,3.77
2022-10-06T21:49:17.088Z,3.23
2022-10-06T21:51:45.654Z,2.57
2022-10-06T21:54:13.220Z,3.10
2022-10-06T21:56:40.717Z,2.80
2022-10-06T21:59:08.517Z,3.10
2022-10-06T22:01:37.207Z,2.73
2022-10-06T22:04:05.056Z,2.63
2022-10-06T22:06:33.734Z,2.97
2022-10-06T22:09:01.602Z,3.03
2022-10-06T22:11:30.614Z,3.47
2022-10-06T22:13:59.542Z,2.50
2022-10-06T22:16:28.130Z,3.40
2022-10-06T22:18:56.217Z,2.80
2022-10-06T22:21:25.170Z,3.17
2022-10-06T22:23:59.844Z,2.67
2022-10-06T22:26:28.377Z,2.60
2022-10-06T22:28:56.564Z,2.90
2022-10-06T22:31:26.323Z,2.70
2022-10-06T22:33:55.469Z,3.37
2022-10-06T22:36:23.434Z,3.40
2022-10-06T22:38:51.034Z,3.13
2022-10-06T22:41:18.497Z,3.10
2022-10-06T22:43:46.346Z,3.30
2022-10-06T22:46:14.608Z,3.03
2022-10-06T22:48:42.148Z,3.50
2022-10-06T22:51:10.007Z,3.60
2022-10-06T22:53:37.432Z,3.23
2022-10-06T22:56:05.000Z,3.17
2022-10-06T22:58:32.546Z,3.23
2022-10-06T23:01:08.568Z,3.53
2022-10-06T23:03:36.056Z,3.40
2022-10-06T23:06:03.579Z,3.40
2022-10-06T23:08:35.111Z,4.10
2022-10-06T23:11:10.280Z,3.20
2022-10-06T23:13:37.941Z,3.37
2022-10-06T23:16:08.096Z,4.17
2022-10-06T23:18:36.548Z,3.57
2022-10-06T23:21:07.838Z,3.50
2022-10-06T23:23:35.834Z,3.63
2022-10-06T23:26:04.208Z,3.70
2022-10-06T23:28:31.907Z,4.00
2022-10-06T23:30:59.401Z,3.90
2022-10-06T23:33:26.832Z,4.13
2022-10-06T23:36:01.042Z,4.00
2022-10-06T23:38:28.766Z,4.03
2022-10-06T23:40:56.224Z,3.73
2022-10-06T23:43:23.729Z,3.43
2022-10-06T23:45:51.290Z,3.50
2022-10-06T23:48:18.840Z,3.87
2022-10-06T23:50:59.019Z,3.00
2022-10-06T23:53:26.912Z,3.47
2022-10-06T23:55:54.664Z,3.80
2022-10-06T23:58:22.329Z,3.47
